Time;durP1;ratioP1;P1;durP2;ratioP2;P2;SDS_P1;SDS_P2;PMS_P1;PMS_P2;Temp;Humidity;BMP_temperature;BMP_pressure;BME280_temperature;BME280_humidity;BME280_pressure;Samples;Min_cycle;Max_cycle;Signal;HPM_P1;HPM_P2
2022/09/20 00:00:13;;;;;;;14.48;5.15;;;;;;;11.51;100.00;100855.09;5018118;28;20217;-76
2022/09/20 00:02:40;;;;;;;7.32;3.00;;;;;;;11.50;100.00;100858.72;5017781;28;20202;-76
2022/09/20 00:05:07;;;;;;;6.60;2.60;;;;;;;11.41;100.00;100859.09;5011471;28;20303;-78
2022/09/20 00:07:34;;;;;;;6.70;2.70;;;;;;;11.50;100.00;100861.41;5015356;28;20211;-78
2022/09/20 00:10:00;;;;;;;5.93;2.80;;;;;;;11.44;100.00;100875.16;5015335;28;20214;-77
2022/09/20 00:12:28;;;;;;;4.45;2.58;;;;;;;11.46;100.00;100865.19;5017219;28;20209;-77
2022/09/20 00:14:54;;;;;;;5.47;2.53;;;;;;;11.39;100.00;100875.34;5016812;28;20208;-77
2022/09/20 00:17:21;;;;;;;8.32;2.85;;;;;;;11.35;100.00;100871.03;5014469;28;20198;-77
2022/09/20 00:19:47;;;;;;;7.45;2.75;;;;;;;11.32;100.00;100872.97;5011412;28;20205;-76
2022/09/20 00:22:14;;;;;;;10.25;2.75;;;;;;;11.22;100.00;100870.66;5013095;28;20205;-76
2022/09/20 00:24:40;;;;;;;9.65;2.53;;;;;;;11.15;100.00;100876.38;5023021;28;20225;-76
2022/09/20 00:27:07;;;;;;;6.32;2.33;;;;;;;11.10;100.00;100875.66;5022690;28;20206;-77
2022/09/20 00:29:35;;;;;;;6.25;2.60;;;;;;;10.99;100.00;100866.19;5013868;28;20293;-78
2022/09/20 00:32:02;;;;;;;6.03;2.60;;;;;;;10.96;100.00;100871.69;5013568;28;20383;-76
2022/09/20 00:37:12;;;;;;;5.05;2.70;;;;;;;10.82;100.00;100874.06;5014606;28;20204;-77
2022/09/20 00:39:39;;;;;;;5.05;2.83;;;;;;;10.72;100.00;100878.03;5012514;28;20645;-77
2022/09/20 00:42:06;;;;;;;6.35;3.05;;;;;;;10.61;100.00;100873.06;5012815;28;20409;-78
2022/09/20 00:44:49;;;;;;;4.72;2.90;;;;;;;10.51;100.00;100872.50;5015388;28;20222;-77
2022/09/20 00:47:24;;;;;;;6.75;2.80;;;;;;;10.40;100.00;100881.03;5016220;28;20208;-78
2022/09/20 00:49:56;;;;;;;8.63;2.70;;;;;;;10.48;100.00;100883.41;5018795;28;20214;-78
2022/09/20 00:52:24;;;;;;;5.07;2.80;;;;;;;10.37;100.00;100885.63;5018607;28;20195;-77
2022/09/20 00:54:50;;;;;;;10.63;3.35;;;;;;;10.17;100.00;100889.00;5017865;28;20207;-77
2022/09/20 00:57:17;;;;;;;7.47;3.03;;;;;;;10.08;100.00;100882.13;5013773;28;20203;-77
2022/09/20 00:59:48;;;;;;;12.95;3.78;;;;;;;10.02;100.00;100885.06;5013626;28;20289;-78
2022/09/20 01:02:18;;;;;;;6.43;3.17;;;;;;;9.98;100.00;100895.03;5008169;28;20206;-77
2022/09/20 01:04:47;;;;;;;6.30;3.30;;;;;;;9.95;100.00;100888.88;5015898;28;20615;-77
2022/09/20 01:07:16;;;;;;;7.95;3.63;;;;;;;9.91;100.00;100888.13;5016330;28;20595;-78
2022/09/20 01:09:42;;;;;;;4.32;2.90;;;;;;;9.86;100.00;100891.88;5017529;28;20564;-77
2022/09/20 01:12:14;;;;;;;8.57;4.15;;;;;;;9.81;100.00;100901.03;5014242;28;20293;-77
2022/09/20 01:14:43;;;;;;;8.90;4.53;;;;;;;10.01;100.00;100899.44;5011884;28;20226;-77
2022/09/20 01:17:13;;;;;;;13.82;4.80;;;;;;;10.09;100.00;100896.50;5018179;28;20250;-77
2022/09/20 01:19:48;;;;;;;11.88;5.07;;;;;;;10.13;100.00;100893.63;5034255;28;20285;-76
2022/09/20 01:22:23;;;;;;;8.35;4.95;;;;;;;10.11;100.00;100892.81;5019890;28;20229;-77
2022/09/20 01:25:00;;;;;;;15.48;5.05;;;;;;;10.08;100.00;100900.09;5015136;28;20309;-76
2022/09/20 01:27:39;;;;;;;6.90;4.65;;;;;;;10.05;100.00;100894.84;5017659;28;20208;-77
2022/09/20 01:30:08;;;;;;;10.57;5.88;;;;;;;10.18;100.00;100894.34;5018065;28;20209;-76
2022/09/20 01:33:04;;;;;;;7.20;4.75;;;;;;;10.11;100.00;100911.66;5013050;28;20195;-77
2022/09/20 01:35:34;;;;;;;8.48;4.82;;;;;;;10.11;100.00;100902.69;5011991;28;20219;-76
2022/09/20 01:38:19;;;;;;;9.68;5.25;;;;;;;10.05;100.00;100905.59;5011814;28;20209;-77
2022/09/20 01:40:55;;;;;;;8.80;4.70;;;;;;;9.92;100.00;100903.31;5012415;28;20558;-77
2022/09/20 01:43:31;;;;;;;12.70;4.70;;;;;;;9.84;100.00;100896.47;5010926;28;20222;-77
2022/09/20 01:46:00;;;;;;;9.85;4.97;;;;;;;9.82;100.00;100908.16;5011180;28;20576;-77
2022/09/20 01:48:34;;;;;;;9.40;4.70;;;;;;;9.79;100.00;100897.50;5014025;28;20210;-77
2022/09/20 01:51:49;;;;;;;11.52;5.03;;;;;;;9.70;100.00;100897.81;5014294;28;20199;-77
2022/09/20 01:54:43;;;;;;;10.35;4.75;;;;;;;9.68;100.00;100910.44;5011781;28;20322;-77
2022/09/20 01:57:29;;;;;;;8.98;4.88;;;;;;;9.77;100.00;100902.06;5008162;28;20285;-76
2022/09/20 02:00:09;;;;;;;12.27;5.40;;;;;;;9.68;100.00;100899.69;5012158;28;20205;-77
2022/09/20 02:03:16;;;;;;;10.40;4.90;;;;;;;9.69;100.00;100901.41;5010312;28;20607;-78
2022/09/20 02:06:07;;;;;;;11.57;5.00;;;;;;;9.60;100.00;100899.91;5012440;28;20288;-77
2022/09/20 02:08:54;;;;;;;12.30;4.82;;;;;;;9.48;100.00;100894.09;4932587;29;20208;-77
2022/09/20 02:11:29;;;;;;;11.10;5.38;;;;;;;9.42;100.00;100896.97;4930328;29;20200;-78
2022/09/20 02:14:05;;;;;;;9.68;4.45;;;;;;;9.30;100.00;100899.13;4933426;29;20232;-77
2022/09/20 02:16:53;;;;;;;11.07;5.20;;;;;;;9.38;100.00;100902.47;4931215;29;20296;-77
2022/09/20 02:19:44;;;;;;;10.05;5.07;;;;;;;9.29;100.00;100904.53;4930128;29;20285;-79
2022/09/20 02:22:21;;;;;;;7.63;4.72;;;;;;;9.33;100.00;100896.31;4929860;29;20201;-78
2022/09/20 02:24:58;;;;;;;10.23;5.43;;;;;;;9.32;100.00;100908.03;4930085;29;20215;-77
2022/09/20 02:27:31;;;;;;;8.50;4.72;;;;;;;9.37;100.00;100908.75;4931564;29;20199;-79
2022/09/20 02:30:12;;;;;;;9.15;4.15;;;;;;;9.30;100.00;100911.69;4932423;29;20295;-77
2022/09/20 02:32:56;;;;;;;13.82;5.05;;;;;;;9.28;100.00;100908.16;4924360;29;20208;-75
2022/09/20 02:35:40;;;;;;;11.50;4.50;;;;;;;9.29;100.00;100907.22;4935144;29;20205;-75
2022/09/20 02:38:22;;;;;;;13.80;5.20;;;;;;;9.21;100.00;100906.59;4925652;29;20203;-77
2022/09/20 02:41:18;;;;;;;9.20;4.43;;;;;;;9.30;100.00;100903.63;4930754;29;20223;-77
2022/09/20 02:43:52;;;;;;;11.25;5.50;;;;;;;9.31;100.00;100902.69;4873073;29;20241;-78
2022/09/20 02:46:27;;;;;;;7.25;4.72;;;;;;;9.32;100.00;100910.72;4939397;28;20609;-78
2022/09/20 02:49:02;;;;;;;12.98;4.00;;;;;;;9.24;100.00;100909.19;4962987;28;20202;-77
2022/09/20 02:51:36;;;;;;;16.15;4.97;;;;;;;9.44;100.00;100911.25;4963861;28;20893;-76
2022/09/20 02:54:16;;;;;;;11.55;4.05;;;;;;;9.38;100.00;100915.00;4969075;28;20285;-75
2022/09/20 02:56:51;;;;;;;12.32;4.88;;;;;;;9.49;100.00;100911.97;4972762;28;20309;-77
2022/09/20 02:59:26;;;;;;;6.38;4.35;;;;;;;9.47;100.00;100906.63;4964893;28;20199;-76
2022/09/20 03:02:03;;;;;;;13.25;4.82;;;;;;;9.42;100.00;100910.41;4960879;28;20200;-81
2022/09/20 03:04:45;;;;;;;10.63;4.65;;;;;;;9.32;100.00;100918.78;4965535;28;20234;-77
2022/09/20 03:07:21;;;;;;;11.23;4.55;;;;;;;9.28;100.00;100916.22;4965128;28;20204;-77
2022/09/20 03:09:56;;;;;;;11.32;5.68;;;;;;;9.29;100.00;100926.03;4979490;28;20295;-78
2022/09/20 03:12:33;;;;;;;19.55;5.30;;;;;;;9.24;100.00;100923.50;4976966;28;20296;-78
2022/09/20 03:15:13;;;;;;;12.25;4.93;;;;;;;9.35;100.00;100920.47;4965323;28;20198;-76
2022/09/20 03:17:49;;;;;;;9.77;5.53;;;;;;;9.24;100.00;100915.44;4960127;28;20237;-78
2022/09/20 03:20:28;;;;;;;10.90;5.13;;;;;;;9.23;100.00;100916.38;4971232;28;20527;-77
2022/09/20 03:23:01;;;;;;;15.82;5.30;;;;;;;9.32;100.00;100918.78;5006294;28;20226;-77
2022/09/20 03:25:39;;;;;;;9.20;4.90;;;;;;;9.17;100.00;100927.31;5011059;28;20206;-76
2022/09/20 03:28:24;;;;;;;13.68;6.28;;;;;;;9.05;100.00;100923.22;5011531;28;20210;-77
2022/09/20 03:31:04;;;;;;;13.35;5.15;;;;;;;8.99;100.00;100920.69;5004443;28;20199;-77
2022/09/20 03:33:43;;;;;;;11.45;4.93;;;;;;;8.88;100.00;100917.47;5013158;28;20221;-76
2022/09/20 03:36:29;;;;;;;12.23;5.05;;;;;;;8.76;100.00;100927.63;5011863;28;20245;-78
2022/09/20 03:39:25;;;;;;;11.25;5.20;;;;;;;8.69;100.00;100923.38;5009629;28;20220;-78
2022/09/20 03:42:11;;;;;;;14.27;5.75;;;;;;;8.72;100.00;100930.47;4999533;28;20654;-75
2022/09/20 03:45:15;;;;;;;12.55;6.15;;;;;;;8.87;100.00;100938.06;5013087;28;20221;-77
2022/09/20 03:48:01;;;;;;;13.50;6.20;;;;;;;8.85;100.00;100942.59;5011684;28;20204;-77
2022/09/20 03:50:45;;;;;;;13.85;6.15;;;;;;;8.85;100.00;100939.91;5018446;28;20191;-77
2022/09/20 03:53:50;;;;;;;14.57;6.50;;;;;;;9.05;100.00;100938.47;5016153;28;20609;-77
2022/09/20 03:56:41;;;;;;;12.95;5.88;;;;;;;9.19;100.00;100947.84;5011506;28;20228;-78
2022/09/20 03:59:26;;;;;;;12.35;6.43;;;;;;;9.36;100.00;100955.38;4929359;29;20253;-76
2022/09/20 04:02:14;;;;;;;14.38;6.22;;;;;;;9.37;100.00;100940.13;4930670;29;20715;-77
2022/09/20 04:04:48;;;;;;;12.20;6.40;;;;;;;9.47;100.00;100943.41;4916284;29;20740;-76
2022/09/20 04:07:22;;;;;;;12.25;6.47;;;;;;;9.38;100.00;100942.78;4931731;29;20204;-77
2022/09/20 04:10:12;;;;;;;8.07;5.15;;;;;;;9.41;100.00;100944.50;4932816;29;20215;-77
2022/09/20 04:12:49;;;;;;;12.00;6.10;;;;;;;9.48;100.00;100939.78;4925713;29;20315;-79
2022/09/20 04:15:35;;;;;;;12.43;5.95;;;;;;;9.50;100.00;100937.94;4934165;29;20203;-76
2022/09/20 04:18:09;;;;;;;11.98;6.03;;;;;;;9.45;100.00;100931.81;4916514;29;20759;-77
2022/09/20 04:20:45;;;;;;;9.10;5.30;;;;;;;9.38;100.00;100932.03;4921762;29;20204;-78
2022/09/20 04:23:34;;;;;;;10.50;6.25;;;;;;;9.37;100.00;100932.94;4935040;29;20260;-78
2022/09/20 04:26:04;;;;;;;12.73;6.07;;;;;;;9.48;100.00;100926.34;4936437;29;20214;-79
2022/09/20 04:28:37;;;;;;;8.35;5.25;;;;;;;9.52;100.00;100919.91;4936720;29;20234;-78
2022/09/20 04:31:14;;;;;;;13.10;6.60;;;;;;;9.51;100.00;100923.56;4935017;29;20214;-77
2022/09/20 04:33:48;;;;;;;10.77;6.22;;;;;;;9.45;100.00;100916.59;4934733;29;20247;-77
2022/09/20 04:36:34;;;;;;;12.02;6.30;;;;;;;9.40;100.00;100919.38;4974119;28;20219;-79
2022/09/20 04:39:14;;;;;;;11.30;6.20;;;;;;;9.31;100.00;100917.00;5009825;28;20205;-78
2022/09/20 04:42:09;;;;;;;12.25;6.60;;;;;;;9.28;100.00;100919.78;5010534;28;20204;-76
2022/09/20 04:45:16;;;;;;;14.88;6.65;;;;;;;9.23;100.00;100937.00;5018561;28;20312;-76
2022/09/20 04:48:19;;;;;;;12.60;6.80;;;;;;;9.18;100.00;100929.09;5017230;28;20208;-78
2022/09/20 04:51:18;;;;;;;10.70;6.75;;;;;;;9.22;100.00;100936.09;4956318;28;20985;-76
2022/09/20 04:54:07;;;;;;;12.70;7.10;;;;;;;9.12;100.00;100942.72;4944737;29;20615;-77
2022/09/20 04:56:49;;;;;;;9.52;5.53;;;;;;;8.97;100.00;100936.84;4952063;29;20232;-75
2022/09/20 04:59:35;;;;;;;17.08;7.35;;;;;;;9.03;100.00;100943.88;4959293;28;20247;-77
2022/09/20 05:02:34;;;;;;;15.18;7.18;;;;;;;8.91;100.00;100961.25;4972900;28;20214;-76
2022/09/20 05:05:40;;;;;;;11.80;7.15;;;;;;;8.87;100.00;100969.44;4953045;28;20208;-77
2022/09/20 05:08:52;;;;;;;18.83;7.07;;;;;;;8.83;100.00;100974.00;4942709;28;20374;-77
2022/09/20 05:12:05;;;;;;;14.82;7.93;;;;;;;9.01;100.00;100985.16;4945875;28;20223;-78
2022/09/20 05:15:02;;;;;;;16.42;10.10;;;;;;;9.05;100.00;100987.69;4941169;28;20277;-78
2022/09/20 05:17:43;;;;;;;13.55;8.65;;;;;;;9.01;100.00;100986.03;4947001;28;20226;-79
2022/09/20 05:20:33;;;;;;;14.57;8.07;;;;;;;9.05;100.00;100982.31;4952076;28;20203;-78
2022/09/20 05:23:21;;;;;;;16.05;8.82;;;;;;;9.15;100.00;100985.59;4945114;29;20254;-79
2022/09/20 05:26:13;;;;;;;21.05;9.07;;;;;;;9.20;100.00;100991.72;4953554;28;20214;-78
2022/09/20 05:28:52;;;;;;;19.73;7.45;;;;;;;9.34;100.00;100983.25;5011297;28;20205;-78
2022/09/20 05:31:30;;;;;;;19.38;8.05;;;;;;;9.45;100.00;100985.56;5017458;28;20203;-78
2022/09/20 05:34:04;;;;;;;20.42;7.93;;;;;;;9.55;100.00;100989.75;5014166;28;20814;-78
2022/09/20 05:36:41;;;;;;;15.20;7.70;;;;;;;9.58;100.00;100986.97;5018310;28;20250;-80
2022/09/20 05:39:21;;;;;;;17.60;8.80;;;;;;;9.71;100.00;100988.31;5012990;28;20195;-79
2022/09/20 05:41:56;;;;;;;14.05;8.75;;;;;;;9.69;100.00;100997.38;5013841;28;20201;-77
2022/09/20 05:44:31;;;;;;;13.77;7.60;;;;;;;9.83;100.00;100997.78;5020080;28;20220;-77
2022/09/20 05:47:11;;;;;;;10.95;7.40;;;;;;;9.87;100.00;101006.66;5016871;28;20206;-77
2022/09/20 05:49:49;;;;;;;13.20;7.10;;;;;;;9.93;100.00;101006.47;5014464;28;20233;-76
2022/09/20 05:52:36;;;;;;;17.23;8.40;;;;;;;10.04;100.00;101001.63;5023945;28;20187;-77
2022/09/20 05:55:39;;;;;;;14.98;7.82;;;;;;;10.14;100.00;101000.34;5021781;28;20201;-77
2022/09/20 05:58:32;;;;;;;16.35;7.70;;;;;;;10.25;100.00;101005.38;5016942;28;20289;-78
2022/09/20 06:01:05;;;;;;;13.43;6.82;;;;;;;10.25;100.00;100996.44;4995772;28;20211;-78
2022/09/20 06:03:41;;;;;;;19.00;7.57;;;;;;;10.49;100.00;101003.69;5004791;28;20235;-78
2022/09/20 06:06:14;;;;;;;11.93;6.85;;;;;;;10.54;100.00;101003.53;5014732;28;20190;-78
2022/09/20 06:08:56;;;;;;;10.30;7.28;;;;;;;10.54;100.00;100999.00;5014875;28;20221;-78
2022/09/20 06:11:58;;;;;;;16.20;7.38;;;;;;;10.56;100.00;100998.94;5019347;28;20190;-78
2022/09/20 06:14:38;;;;;;;12.40;7.50;;;;;;;10.63;100.00;100989.72;5008443;28;20296;-78
2022/09/20 06:17:15;;;;;;;20.60;8.68;;;;;;;10.79;100.00;100990.91;5014299;28;20698;-78
2022/09/20 06:19:48;;;;;;;15.40;7.32;;;;;;;11.03;100.00;100997.22;5013075;28;20208;-78
2022/09/20 06:22:21;;;;;;;13.50;7.93;;;;;;;11.11;100.00;100990.63;5012642;28;20222;-78
2022/09/20 06:24:55;;;;;;;12.57;8.20;;;;;;;11.13;100.00;100981.56;5016082;28;20201;-78
2022/09/20 06:27:27;;;;;;;13.90;8.68;;;;;;;11.12;100.00;101001.34;5010258;28;20205;-79
2022/09/20 06:29:59;;;;;;;16.20;8.15;;;;;;;11.20;100.00;100990.28;5019411;28;20201;-78
2022/09/20 06:32:26;;;;;;;12.10;7.80;;;;;;;11.30;100.00;100988.97;5016747;28;20202;-78
2022/09/20 06:34:54;;;;;;;14.50;8.32;;;;;;;11.27;100.00;100984.59;5010944;28;20203;-78
2022/09/20 06:43:41;;;;;;;15.02;7.95;;;;;;;11.36;100.00;100991.44;4988742;28;20219;-78
2022/09/20 06:46:09;;;;;;;11.50;7.20;;;;;;;11.44;100.00;100994.72;4990538;28;20231;-78
2022/09/20 06:48:38;;;;;;;12.00;7.82;;;;;;;11.63;100.00;101002.09;4997636;28;20199;-80
2022/09/20 06:51:08;;;;;;;13.40;7.78;;;;;;;11.86;100.00;101003.84;4997809;28;20214;-79
2022/09/20 06:53:39;;;;;;;15.85;7.63;;;;;;;12.07;100.00;101005.69;4997390;28;20232;-79
2022/09/20 06:56:08;;;;;;;11.60;8.60;;;;;;;12.40;100.00;101009.72;4981888;28;20215;-79
2022/09/20 06:58:34;;;;;;;15.70;9.90;;;;;;;12.55;100.00;101006.34;4978083;28;20219;-79
2022/09/20 07:01:01;;;;;;;15.35;10.98;;;;;;;12.81;100.00;100999.78;4980520;28;20279;-80
2022/09/20 07:03:28;;;;;;;15.35;8.85;;;;;;;13.01;100.00;100988.06;4977342;28;20232;-79
2022/09/20 07:05:55;;;;;;;9.45;6.85;;;;;;;13.11;100.00;100999.31;4976914;28;20564;-77
2022/09/20 07:08:22;;;;;;;12.13;7.28;;;;;;;13.25;100.00;100994.16;4973698;28;20211;-78
2022/09/20 07:10:49;;;;;;;11.20;7.38;;;;;;;13.44;100.00;100996.88;4971343;28;20206;-78
2022/09/20 07:13:19;;;;;;;16.92;8.43;;;;;;;13.63;100.00;100998.69;4973798;28;20253;-79
2022/09/20 07:15:45;;;;;;;16.88;7.85;;;;;;;13.47;100.00;100995.84;4988710;28;20236;-77
2022/09/20 07:18:12;;;;;;;13.38;6.82;;;;;;;13.57;100.00;100997.19;5019523;28;20265;-78
2022/09/20 07:20:40;;;;;;;11.00;7.00;;;;;;;13.67;100.00;101008.44;5021073;28;20232;-78
2022/09/20 07:23:07;;;;;;;12.35;6.10;;;;;;;14.02;100.00;101003.09;5014463;28;20233;-78
2022/09/20 07:25:36;;;;;;;11.13;6.75;;;;;;;14.01;100.00;100999.50;5015655;28;20220;-78
2022/09/20 07:28:03;;;;;;;13.75;7.05;;;;;;;14.27;100.00;101003.63;5014247;28;20329;-78
2022/09/20 07:30:29;;;;;;;11.32;7.68;;;;;;;14.12;100.00;100994.44;5031827;28;20199;-78
2022/09/20 07:32:56;;;;;;;13.57;6.60;;;;;;;14.37;100.00;101009.44;5031840;28;20321;-78
2022/09/20 07:35:22;;;;;;;13.10;7.85;;;;;;;14.44;100.00;100999.16;5014819;28;20296;-77
2022/09/20 07:37:56;;;;;;;10.82;6.70;;;;;;;14.58;100.00;101002.03;5012139;28;20233;-78
2022/09/20 07:40:24;;;;;;;11.82;7.20;;;;;;;14.79;100.00;101003.63;5013535;28;20213;-78
2022/09/20 07:42:51;;;;;;;11.77;7.72;;;;;;;14.94;100.00;100998.34;5008489;28;20233;-78
2022/09/20 07:45:18;;;;;;;11.38;7.40;;;;;;;15.02;100.00;100991.53;5013392;28;20218;-78
2022/09/20 07:47:45;;;;;;;9.65;6.72;;;;;;;14.94;100.00;101003.75;5013453;28;20214;-78
2022/09/20 07:50:12;;;;;;;12.77;7.85;;;;;;;15.02;100.00;101004.22;5018280;28;20198;-78
2022/09/20 07:52:38;;;;;;;11.35;8.75;;;;;;;14.89;100.00;101014.84;5017908;28;20570;-77
2022/09/20 07:55:05;;;;;;;11.13;7.18;;;;;;;14.95;100.00;101008.25;5015206;28;20207;-78
2022/09/20 07:57:36;;;;;;;11.60;7.55;;;;;;;14.84;100.00;101007.94;5032134;28;20680;-78
2022/09/20 08:00:05;;;;;;;13.45;6.95;;;;;;;14.88;99.50;101017.63;5036651;28;20186;-77
2022/09/20 08:02:31;;;;;;;10.73;7.38;;;;;;;15.11;97.31;101011.00;5014171;28;20207;-78
2022/09/20 08:04:58;;;;;;;11.23;8.07;;;;;;;14.90;98.37;101007.59;5015813;28;20783;-78
2022/09/20 08:07:25;;;;;;;11.45;7.68;;;;;;;15.04;98.20;101005.03;5016828;28;20210;-78
2022/09/20 08:09:51;;;;;;;14.23;6.30;;;;;;;14.78;96.25;101010.00;5015341;28;20580;-78
2022/09/20 08:12:18;;;;;;;8.55;6.22;;;;;;;14.84;93.75;101014.22;5016234;28;20214;-79
2022/09/20 08:14:45;;;;;;;10.20;6.90;;;;;;;15.00;94.08;101011.56;5014059;28;20222;-78
2022/09/20 08:17:13;;;;;;;15.30;6.47;;;;;;;15.28;90.37;101010.06;5016824;28;20209;-77
2022/09/20 08:19:41;;;;;;;8.65;5.78;;;;;;;14.99;86.86;101012.50;5015994;28;20202;-78
2022/09/20 08:22:09;;;;;;;8.68;5.95;;;;;;;15.13;87.15;101022.66;5018427;28;20202;-77
2022/09/20 08:24:36;;;;;;;7.15;5.65;;;;;;;15.63;84.00;101025.25;5015073;28;20843;-78
2022/09/20 08:27:02;;;;;;;9.13;6.32;;;;;;;15.95;81.65;101019.84;5016464;28;20199;-79
2022/09/20 08:29:29;;;;;;;7.65;6.15;;;;;;;15.90;80.52;101026.53;5017524;28;20210;-78
2022/09/20 08:31:57;;;;;;;7.80;6.55;;;;;;;15.93;79.97;101029.06;4997847;28;20203;-77
2022/09/20 08:34:24;;;;;;;14.10;6.20;;;;;;;16.36;78.88;101023.81;5014713;28;20242;-79
2022/09/20 08:36:55;;;;;;;8.13;5.00;;;;;;;16.17;77.86;101026.75;5016161;28;20202;-77
2022/09/20 08:39:22;;;;;;;12.23;5.40;;;;;;;16.73;75.27;101027.88;5017303;28;20624;-77
2022/09/20 08:41:55;;;;;;;13.35;5.70;;;;;;;16.96;72.29;101021.06;5019711;28;20636;-78
2022/09/20 08:44:26;;;;;;;8.88;5.18;;;;;;;17.35;66.92;101024.09;5020270;28;20711;-78
2022/09/20 08:47:03;;;;;;;8.68;4.97;;;;;;;18.20;64.00;101020.31;5017752;28;20680;-78
2022/09/20 08:49:31;;;;;;;8.10;4.20;;;;;;;18.62;60.74;101021.09;5016524;28;20202;-78
2022/09/20 08:52:01;;;;;;;7.32;4.50;;;;;;;19.07;57.52;101029.81;5015277;28;20205;-77
2022/09/20 08:54:32;;;;;;;7.50;3.83;;;;;;;19.05;56.33;101030.91;5012983;28;20226;-78
2022/09/20 08:57:02;;;;;;;7.70;4.60;;;;;;;18.95;57.06;101036.16;5013681;28;20868;-79
2022/09/20 08:59:30;;;;;;;8.57;4.30;;;;;;;19.27;56.36;101031.09;5013051;28;20465;-77
2022/09/20 09:01:57;;;;;;;10.63;6.53;;;;;;;19.19;54.30;101028.03;5016955;28;20449;-78
2022/09/20 09:04:30;;;;;;;9.07;6.33;;;;;;;18.88;56.57;101027.50;5014070;28;20485;-79
2022/09/20 09:06:57;;;;;;;7.17;4.20;;;;;;;20.72;49.33;101040.38;5014164;28;20453;-78
2022/09/20 09:09:27;;;;;;;5.67;3.83;;;;;;;20.23;50.52;101035.03;5014120;28;20464;-77
2022/09/20 09:11:55;;;;;;;10.10;3.80;;;;;;;22.95;44.93;101037.59;5016959;28;20528;-78
2022/09/20 09:17:11;;;;;;;6.17;3.47;;;;;;;26.35;37.25;101040.38;5014058;28;20456;-77
2022/09/20 09:19:47;;;;;;;6.60;3.37;;;;;;;25.30;37.87;101029.72;5014566;28;20480;-78
2022/09/20 09:22:21;;;;;;;4.80;2.90;;;;;;;24.32;38.19;101038.03;5014125;28;20461;-78
2022/09/20 09:25:23;;;;;;;6.23;3.07;;;;;;;22.59;42.27;101024.22;5010882;28;20461;-79
2022/09/20 09:27:53;;;;;;;5.67;3.30;;;;;;;22.93;42.56;101025.88;5012584;28;20456;-77
2022/09/20 09:30:23;;;;;;;9.37;3.27;;;;;;;22.28;43.49;101023.22;5015645;28;20445;-78
2022/09/20 09:32:50;;;;;;;4.03;2.80;;;;;;;22.47;42.94;101030.75;5012595;28;20481;-78
2022/09/20 09:35:29;;;;;;;11.93;8.80;;;;;;;24.60;39.37;101024.44;5015100;28;20537;-76
2022/09/20 09:38:00;;;;;;;9.70;3.87;;;;;;;25.41;37.77;101015.75;5013268;28;20536;-77
2022/09/20 09:40:27;;;;;;;4.13;2.67;;;;;;;25.71;37.73;101016.50;5013584;28;20807;-78
2022/09/20 09:42:55;;;;;;;4.13;2.60;;;;;;;26.09;35.67;101014.56;5009838;28;20485;-77
2022/09/20 09:45:29;;;;;;;5.63;2.70;;;;;;;26.29;35.54;101013.38;5012064;28;20473;-77
2022/09/20 09:47:58;;;;;;;4.20;2.30;;;;;;;27.28;33.46;101022.53;5006988;28;20468;-78
2022/09/20 09:50:26;;;;;;;4.87;2.30;;;;;;;28.79;31.95;101023.56;5012950;28;20481;-77
2022/09/20 09:53:03;;;;;;;3.00;1.90;;;;;;;30.09;29.50;101013.16;5012517;28;20480;-77
2022/09/20 09:55:51;;;;;;;5.47;2.20;;;;;;;29.47;29.76;101016.72;5014224;28;20433;-78
2022/09/20 09:58:28;;;;;;;4.00;1.90;;;;;;;30.17;29.22;101017.81;5001409;28;20631;-77
2022/09/20 10:00:57;;;;;;;4.50;2.23;;;;;;;30.43;29.01;101023.03;5013434;28;20429;-78
2022/09/20 10:03:34;;;;;;;5.40;2.03;;;;;;;30.87;28.14;101017.69;5010809;28;20509;-77
2022/09/20 10:06:10;;;;;;;5.00;1.70;;;;;;;29.63;29.12;101010.25;5013595;28;20457;-78
2022/09/20 10:08:49;;;;;;;4.03;2.23;;;;;;;29.43;29.64;101012.56;5035879;28;20509;-78
2022/09/20 10:11:28;;;;;;;3.67;1.97;;;;;;;29.02;29.90;101012.63;5030926;28;20472;-77
2022/09/20 10:14:04;;;;;;;2.50;1.83;;;;;;;28.86;30.27;101007.97;5016422;28;20516;-77
2022/09/20 10:16:46;;;;;;;4.17;2.00;;;;;;;30.84;27.59;101003.25;5010280;28;20465;-78
2022/09/20 10:19:20;;;;;;;4.80;2.27;;;;;;;30.62;27.49;101002.22;5012910;28;20511;-77
2022/09/20 10:22:00;;;;;;;3.73;1.77;;;;;;;28.44;30.39;100998.75;5011015;28;20484;-77
2022/09/20 10:24:40;;;;;;;3.50;1.73;;;;;;;30.16;29.73;100993.84;5010080;28;20508;-78
2022/09/20 10:27:18;;;;;;;3.97;1.77;;;;;;;29.26;29.90;100986.75;5015110;28;20468;-77
2022/09/20 10:29:56;;;;;;;5.70;1.80;;;;;;;30.98;27.01;100990.44;5012760;28;20511;-76
2022/09/20 10:32:35;;;;;;;3.70;1.57;;;;;;;31.66;27.19;100994.03;5013690;28;20460;-78
2022/09/20 10:35:22;;;;;;;3.37;1.70;;;;;;;31.69;26.33;100985.31;5014252;28;20515;-78
2022/09/20 10:38:03;;;;;;;2.97;1.63;;;;;;;30.75;26.42;100988.53;5007774;28;20859;-78
2022/09/20 10:43:40;;;;;;;4.10;1.50;;;;;;;34.47;23.40;100982.94;5009367;28;20607;-79
2022/09/20 10:46:17;;;;;;;2.50;1.10;;;;;;;34.89;22.05;100982.75;5010046;28;20469;-79
2022/09/20 10:48:48;;;;;;;2.80;1.33;;;;;;;35.04;22.44;100986.19;5005408;28;20435;-78
2022/09/20 10:51:24;;;;;;;4.27;2.10;;;;;;;32.28;24.87;100981.53;4998871;28;20472;-77
2022/09/20 10:54:02;;;;;;;3.20;1.47;;;;;;;29.54;26.72;100981.66;5014486;28;20472;-77
2022/09/20 10:56:35;;;;;;;6.00;1.80;;;;;;;26.91;29.46;100969.25;5021683;28;20449;-78
2022/09/20 10:59:34;;;;;;;3.47;1.67;;;;;;;25.50;31.80;100972.63;5017315;28;20453;-77
2022/09/20 11:02:17;;;;;;;4.87;1.77;;;;;;;24.03;33.98;100968.34;5007075;28;20466;-77
2022/09/20 11:05:00;;;;;;;2.60;1.33;;;;;;;23.40;35.15;100966.72;5046565;23;20861;-75
2022/09/20 11:07:42;;;;;;;4.27;2.07;;;;;;;23.44;35.19;100961.81;5032234;28;20460;-74
2022/09/20 11:10:19;;;;;;;8.30;6.33;;;;;;;23.43;34.89;100969.22;5020284;28;20504;-74
2022/09/20 11:12:51;;;;;;;8.07;5.60;;;;;;;24.93;32.78;100972.66;5027762;28;20569;-74
2022/09/20 11:15:23;;;;;;;5.00;2.80;;;;;;;25.12;32.28;100969.88;5032212;28;20460;-75
2022/09/20 11:18:00;;;;;;;4.33;1.80;;;;;;;25.75;31.87;100968.28;5031978;28;20452;-75
2022/09/20 11:20:30;;;;;;;5.90;1.37;;;;;;;25.23;31.82;100970.72;5029115;28;20444;-73
2022/09/20 11:23:01;;;;;;;3.53;1.47;;;;;;;25.40;31.89;100971.81;5033949;28;20437;-74
2022/09/20 11:25:34;;;;;;;5.87;1.67;;;;;;;25.03;31.86;100978.13;5027873;28;20473;-74
2022/09/20 11:28:11;;;;;;;2.77;1.80;;;;;;;24.77;32.48;100984.31;5040044;28;20449;-76
2022/09/20 11:30:44;;;;;;;3.20;1.40;;;;;;;24.42;33.24;100984.88;5039100;28;20986;-72
2022/09/20 11:33:21;;;;;;;2.70;1.30;;;;;;;23.75;33.30;100978.31;5040349;28;20492;-72
2022/09/20 11:35:52;;;;;;;3.40;1.60;;;;;;;22.96;35.24;100982.53;5032817;28;20515;-73
2022/09/20 11:38:23;;;;;;;4.83;2.53;;;;;;;21.68;39.29;100977.97;5030866;28;20963;-72
2022/09/20 11:40:56;;;;;;;5.57;2.00;;;;;;;20.12;43.06;100990.22;5035484;28;20484;-73
2022/09/20 11:43:30;;;;;;;5.10;2.10;;;;;;;19.82;44.15;100978.91;5032381;28;20491;-74
2022/09/20 11:46:00;;;;;;;4.60;1.97;;;;;;;21.12;42.39;100982.47;5036580;28;20433;-74
2022/09/20 11:48:32;;;;;;;6.53;2.20;;;;;;;24.06;37.15;100985.47;5035397;28;20452;-75
2022/09/20 11:51:27;;;;;;;4.00;2.03;;;;;;;24.00;36.81;100990.66;5034355;28;20534;-74
2022/09/20 11:54:17;;;;;;;3.40;2.80;;;;;;;22.67;39.73;100982.34;5036453;28;20563;-75
2022/09/20 11:56:50;;;;;;;6.23;3.20;;;;;;;22.11;41.85;100972.47;5037265;28;20460;-75
2022/09/20 11:59:28;;;;;;;5.13;3.00;;;;;;;21.15;43.95;100976.72;5020889;28;20487;-75
2022/09/20 12:01:58;;;;;;;3.90;3.40;;;;;;;20.69;45.07;100985.00;5038405;28;20429;-74
2022/09/20 12:04:28;;;;;;;4.80;3.10;;;;;;;20.11;47.04;100983.03;5038493;28;20500;-74
2022/09/20 12:07:00;;;;;;;5.07;3.80;;;;;;;20.07;47.81;100980.66;5034266;28;20453;-74
2022/09/20 12:09:31;;;;;;;9.10;2.93;;;;;;;19.81;48.98;100979.88;5026422;28;20448;-74
2022/09/20 12:11:59;;;;;;;5.13;3.67;;;;;;;19.26;50.69;100973.88;5035246;28;20456;-74
2022/09/20 12:14:31;;;;;;;5.50;3.47;;;;;;;19.42;50.05;100974.47;5032812;28;20487;-74